BIENTÔT MET'MAP
version 2.0 !

Prévue avant fin octobre,
la nouvelle version sera
plus belle, plus complète
et hébergée sur un serveur
3 fois plus puissant...
et toujours gratuite !


Pas compatible ?
Essayez la version Mobile !

SE CONNECTER : | S'inscrire | Disclaimer | Découvrir Orbifly |
Code OACI :

TAF - LGKO Ippokratis - 01 Jun 2020 22:29 UTC - Data Source NOAA   


- Altitude de l'aérodrome : 412 ft
- Code IATA : KGS
- Pas de NOTAMs connus.


LGKO - Ippokratis

Dernier METAR connu : 2015/08/11 07:50 LGKO 110750Z 29009KT CAVOK 27/20 Q1011
TAF TAF LGKO
Valide du 01 à 18h jusqu'au 02 à 18h UTC


011700Z 0118/0218 VRB05KT 9999 SCT020
PROB40
TEMPO 0118/0200 5000 RA SCT012 FEW016TCU BKN025
PROB30
TEMPO 0118/0124 3000 TSRA SCT010 FEW016CB BKN025
BECMG 0201/0203 30015KT

Source NOAA


MET'MAP, la Météo Aéronautique d'un coup d'oeil ! - Copyright ORBIFLY Décembre 2007

Développement & Programmation : Alexandra Zaïnal
Co-Développement : Marc-Olivier Méhu
Soutien technique & logistique : Manuel Goepfert
Conception & Financement : Baudouin d'Aumeries